sensor_id;sensor_type;location;lat;lon;timestamp;pressure;altitude;pressure_sealevel;temperature;humidity
34586;BME280;20816;50.950;11.108;2023-04-12T00:00:08;97958.56;;;3.48;92.06
34586;BME280;20816;50.950;11.108;2023-04-12T00:02:37;97949.88;;;3.55;92.10
34586;BME280;20816;50.950;11.108;2023-04-12T00:05:05;97946.38;;;3.62;91.56
34586;BME280;20816;50.950;11.108;2023-04-12T00:07:35;97942.88;;;3.70;91.22
34586;BME280;20816;50.950;11.108;2023-04-12T00:10:05;97935.00;;;3.82;90.89
34586;BME280;20816;50.950;11.108;2023-04-12T00:12:33;97920.28;;;3.84;89.82
34586;BME280;20816;50.950;11.108;2023-04-12T00:15:00;97913.31;;;3.89;89.71
34586;BME280;20816;50.950;11.108;2023-04-12T00:17:27;97916.75;;;3.94;89.79
34586;BME280;20816;50.950;11.108;2023-04-12T00:19:54;97921.03;;;3.98;89.17
34586;BME280;20816;50.950;11.108;2023-04-12T00:22:21;97907.13;;;4.07;88.66
34586;BME280;20816;50.950;11.108;2023-04-12T00:24:47;97907.13;;;4.05;88.86
34586;BME280;20816;50.950;11.108;2023-04-12T00:27:14;97899.28;;;4.11;88.60
34586;BME280;20816;50.950;11.108;2023-04-12T00:29:40;97894.19;;;3.98;89.02
34586;BME280;20816;50.950;11.108;2023-04-12T00:32:07;97893.31;;;4.02;89.44
34586;BME280;20816;50.950;11.108;2023-04-12T00:34:34;97893.31;;;3.99;89.18
34586;BME280;20816;50.950;11.108;2023-04-12T00:37:01;97895.91;;;3.97;88.88
34586;BME280;20816;50.950;11.108;2023-04-12T00:39:27;97895.91;;;4.00;88.38
34586;BME280;20816;50.950;11.108;2023-04-12T00:41:54;97877.66;;;4.08;88.05
34586;BME280;20816;50.950;11.108;2023-04-12T00:44:22;97874.94;;;4.21;87.02
34586;BME280;20816;50.950;11.108;2023-04-12T00:46:49;97869.59;;;4.40;85.64
34586;BME280;20816;50.950;11.108;2023-04-12T00:49:16;97868.66;;;4.45;85.20
34586;BME280;20816;50.950;11.108;2023-04-12T00:51:43;97862.59;;;4.48;85.95
34586;BME280;20816;50.950;11.108;2023-04-12T00:54:10;97860.81;;;4.47;86.11
34586;BME280;20816;50.950;11.108;2023-04-12T00:56:38;97857.34;;;4.49;85.69
34586;BME280;20816;50.950;11.108;2023-04-12T00:59:05;97852.19;;;4.48;86.15
34586;BME280;20816;50.950;11.108;2023-04-12T01:01:33;97857.38;;;4.48;86.41
34586;BME280;20816;50.950;11.108;2023-04-12T01:04:00;97856.53;;;4.44;87.26
34586;BME280;20816;50.950;11.108;2023-04-12T01:06:53;97842.72;;;4.38;88.59
34586;BME280;20816;50.950;11.108;2023-04-12T01:09:42;97839.25;;;4.37;88.50
34586;BME280;20816;50.950;11.108;2023-04-12T01:12:23;97843.59;;;4.40;87.83
34586;BME280;20816;50.950;11.108;2023-04-12T01:15:04;97845.22;;;4.47;87.30
34586;BME280;20816;50.950;11.108;2023-04-12T01:17:37;97833.19;;;4.37;87.70
34586;BME280;20816;50.950;11.108;2023-04-12T01:20:18;97826.22;;;4.39;88.54
34586;BME280;20816;50.950;11.108;2023-04-12T01:28:37;97819.19;;;4.47;88.12
34586;BME280;20816;50.950;11.108;2023-04-12T01:31:03;97818.34;;;4.48;88.05
34586;BME280;20816;50.950;11.108;2023-04-12T01:33:30;97805.34;;;4.45;88.65
34586;BME280;20816;50.950;11.108;2023-04-12T01:36:00;97802.66;;;4.54;87.79
34586;BME280;20816;50.950;11.108;2023-04-12T01:38:32;97805.19;;;4.60;87.46
34586;BME280;20816;50.950;11.108;2023-04-12T01:40:58;97796.38;;;4.73;86.38
34586;BME280;20816;50.950;11.108;2023-04-12T01:43:25;97782.47;;;4.74;86.66
34586;BME280;20816;50.950;11.108;2023-04-12T01:45:52;97778.94;;;4.82;86.66
34586;BME280;20816;50.950;11.108;2023-04-12T01:48:19;97777.13;;;4.87;86.39
34586;BME280;20816;50.950;11.108;2023-04-12T01:51:09;97789.16;;;4.97;85.48
34586;BME280;20816;50.950;11.108;2023-04-12T01:53:58;97789.91;;;5.05;84.91
34586;BME280;20816;50.950;11.108;2023-04-12T01:56:30;97778.50;;;5.12;84.19
34586;BME280;20816;50.950;11.108;2023-04-12T01:58:57;97781.88;;;5.22;84.08
34586;BME280;20816;50.950;11.108;2023-04-12T02:01:25;97773.28;;;5.15;84.36
34586;BME280;20816;50.950;11.108;2023-04-12T02:03:52;97778.41;;;5.20;84.19
34586;BME280;20816;50.950;11.108;2023-04-12T02:06:20;97766.16;;;5.29;83.50
34586;BME280;20816;50.950;11.108;2023-04-12T02:08:48;97752.91;;;5.42;82.57
34586;BME280;20816;50.950;11.108;2023-04-12T02:11:15;97743.44;;;5.38;83.88
34586;BME280;20816;50.950;11.108;2023-04-12T02:13:41;97751.22;;;5.39;83.71
34586;BME280;20816;50.950;11.108;2023-04-12T02:16:08;97733.88;;;5.37;84.15
34586;BME280;20816;50.950;11.108;2023-04-12T02:18:36;97733.75;;;5.44;83.74
34586;BME280;20816;50.950;11.108;2023-04-12T02:21:03;97729.28;;;5.54;83.33
34586;BME280;20816;50.950;11.108;2023-04-12T02:23:29;97729.38;;;5.48;83.17
34586;BME280;20816;50.950;11.108;2023-04-12T02:25:56;97732.72;;;5.56;83.21
34586;BME280;20816;50.950;11.108;2023-04-12T02:28:23;97731.91;;;5.52;84.04
34586;BME280;20816;50.950;11.108;2023-04-12T02:30:49;97722.41;;;5.50;84.43
34586;BME280;20816;50.950;11.108;2023-04-12T02:33:19;97717.03;;;5.59;84.04
34586;BME280;20816;50.950;11.108;2023-04-12T02:35:47;97714.44;;;5.59;84.33
34586;BME280;20816;50.950;11.108;2023-04-12T02:38:13;97709.25;;;5.57;85.68
34586;BME280;20816;50.950;11.108;2023-04-12T02:40:40;97692.59;;;5.66;85.29
34586;BME280;20816;50.950;11.108;2023-04-12T02:43:08;97687.44;;;5.61;85.26
34586;BME280;20816;50.950;11.108;2023-04-12T02:45:35;97693.66;;;5.54;85.45
34586;BME280;20816;50.950;11.108;2023-04-12T02:48:02;97683.34;;;5.48;85.79
34586;BME280;20816;50.950;11.108;2023-04-12T02:50:30;97688.59;;;5.47;86.31
34586;BME280;20816;50.950;11.108;2023-04-12T02:52:57;97679.84;;;5.49;86.45
34586;BME280;20816;50.950;11.108;2023-04-12T02:55:24;97680.75;;;5.47;86.38
34586;BME280;20816;50.950;11.108;2023-04-12T02:57:51;97667.72;;;5.47;86.76
34586;BME280;20816;50.950;11.108;2023-04-12T03:00:19;97667.59;;;5.54;86.17
34586;BME280;20816;50.950;11.108;2023-04-12T03:02:47;97663.09;;;5.64;85.88
34586;BME280;20816;50.950;11.108;2023-04-12T03:05:17;97658.03;;;5.55;86.07
34586;BME280;20816;50.950;11.108;2023-04-12T03:07:44;97656.31;;;5.54;85.94
34586;BME280;20816;50.950;11.108;2023-04-12T03:10:11;97653.66;;;5.57;86.15
34586;BME280;20816;50.950;11.108;2023-04-12T03:12:38;97660.66;;;5.53;86.04
34586;BME280;20816;50.950;11.108;2023-04-12T03:15:05;97656.31;;;5.54;85.88
34586;BME280;20816;50.950;11.108;2023-04-12T03:17:32;97653.69;;;5.55;85.95
34586;BME280;20816;50.950;11.108;2023-04-12T03:20:06;97657.91;;;5.61;86.50
34586;BME280;20816;50.950;11.108;2023-04-12T03:22:36;97650.81;;;5.69;86.35
34586;BME280;20816;50.950;11.108;2023-04-12T03:25:03;97639.25;;;5.84;85.85
34586;BME280;20816;50.950;11.108;2023-04-12T03:27:30;97632.41;;;5.80;85.56
34586;BME280;20816;50.950;11.108;2023-04-12T03:29:57;97632.94;;;5.99;85.28
34586;BME280;20816;50.950;11.108;2023-04-12T03:32:24;97629.50;;;5.97;85.34
34586;BME280;20816;50.950;11.108;2023-04-12T03:34:51;97619.09;;;5.94;85.63
34586;BME280;20816;50.950;11.108;2023-04-12T03:37:17;97616.50;;;5.94;84.89
34586;BME280;20816;50.950;11.108;2023-04-12T03:39:45;97619.19;;;5.90;85.45
34586;BME280;20816;50.950;11.108;2023-04-12T03:42:14;97614.03;;;5.84;85.06
34586;BME280;20816;50.950;11.108;2023-04-12T03:44:55;97607.94;;;5.85;85.64
34586;BME280;20816;50.950;11.108;2023-04-12T03:47:22;97607.94;;;5.87;85.95
34586;BME280;20816;50.950;11.108;2023-04-12T03:49:48;97601.84;;;5.86;85.79
34586;BME280;20816;50.950;11.108;2023-04-12T03:52:35;97584.53;;;5.82;85.96
34586;BME280;20816;50.950;11.108;2023-04-12T03:55:02;97574.06;;;5.84;86.01
34586;BME280;20816;50.950;11.108;2023-04-12T03:57:29;97579.31;;;5.82;86.22
34586;BME280;20816;50.950;11.108;2023-04-12T03:59:55;97583.50;;;5.93;85.70
34586;BME280;20816;50.950;11.108;2023-04-12T04:02:22;97581.75;;;5.93;85.41
34586;BME280;20816;50.950;11.108;2023-04-12T04:04:50;97583.34;;;6.00;85.11
34586;BME280;20816;50.950;11.108;2023-04-12T04:07:17;97580.66;;;6.05;84.99
34586;BME280;20816;50.950;11.108;2023-04-12T04:09:44;97575.47;;;6.02;85.30
34586;BME280;20816;50.950;11.108;2023-04-12T04:12:10;97582.34;;;6.07;84.98
34586;BME280;20816;50.950;11.108;2023-04-12T04:14:37;97578.09;;;6.03;84.78
34586;BME280;20816;50.950;11.108;2023-04-12T04:17:04;97577.22;;;6.03;84.85
34586;BME280;20816;50.950;11.108;2023-04-12T04:19:31;97569.56;;;5.95;85.27
34586;BME280;20816;50.950;11.108;2023-04-12T04:21:57;97572.13;;;5.97;85.21
34586;BME280;20816;50.950;11.108;2023-04-12T04:24:24;97570.56;;;5.85;86.27
34586;BME280;20816;50.950;11.108;2023-04-12T04:26:51;97567.03;;;5.90;86.22
34586;BME280;20816;50.950;11.108;2023-04-12T04:29:19;97562.91;;;5.77;87.09
34586;BME280;20816;50.950;11.108;2023-04-12T04:31:46;97562.81;;;5.82;86.89
34586;BME280;20816;50.950;11.108;2023-04-12T04:34:14;97562.63;;;5.93;87.12
34586;BME280;20816;50.950;11.108;2023-04-12T04:36:41;97558.28;;;5.95;86.48
34586;BME280;20816;50.950;11.108;2023-04-12T04:39:09;97561.50;;;6.06;86.02
34586;BME280;20816;50.950;11.108;2023-04-12T04:41:35;97554.38;;;6.14;86.48
34586;BME280;20816;50.950;11.108;2023-04-12T04:44:07;97548.19;;;6.20;85.81
34586;BME280;20816;50.950;11.108;2023-04-12T04:46:36;97537.50;;;6.30;84.63
34586;BME280;20816;50.950;11.108;2023-04-12T04:49:04;97535.06;;;6.61;84.04
34586;BME280;20816;50.950;11.108;2023-04-12T04:51:32;97534.53;;;6.84;82.45
34586;BME280;20816;50.950;11.108;2023-04-12T04:53:59;97527.28;;;6.95;81.46
34586;BME280;20816;50.950;11.108;2023-04-12T04:56:25;97523.53;;;7.06;81.74
34586;BME280;20816;50.950;11.108;2023-04-12T04:58:52;97525.91;;;7.15;81.07
34586;BME280;20816;50.950;11.108;2023-04-12T05:01:22;97531.06;;;7.18;80.88
34586;BME280;20816;50.950;11.108;2023-04-12T05:03:54;97526.66;;;7.20;80.73
34586;BME280;20816;50.950;11.108;2023-04-12T05:06:21;97533.50;;;7.24;81.06
34586;BME280;20816;50.950;11.108;2023-04-12T05:08:48;97535.00;;;7.34;80.76
34586;BME280;20816;50.950;11.108;2023-04-12T05:11:15;97519.13;;;7.42;79.80
34586;BME280;20816;50.950;11.108;2023-04-12T05:13:42;97517.22;;;7.47;78.78
34586;BME280;20816;50.950;11.108;2023-04-12T05:16:09;97513.81;;;7.45;79.15
34586;BME280;20816;50.950;11.108;2023-04-12T05:18:36;97512.78;;;7.50;79.49
34586;BME280;20816;50.950;11.108;2023-04-12T05:21:03;97520.78;;;7.44;80.13
34586;BME280;20816;50.950;11.108;2023-04-12T05:23:41;97500.78;;;7.43;79.94
34586;BME280;20816;50.950;11.108;2023-04-12T05:26:08;97500.56;;;7.51;80.48
34586;BME280;20816;50.950;11.108;2023-04-12T05:28:35;97496.09;;;7.54;79.98
34586;BME280;20816;50.950;11.108;2023-04-12T05:31:02;97510.72;;;7.62;79.65
34586;BME280;20816;50.950;11.108;2023-04-12T05:33:28;97512.53;;;7.59;80.04
34586;BME280;20816;50.950;11.108;2023-04-12T05:35:58;97507.06;;;7.69;79.65
34586;BME280;20816;50.950;11.108;2023-04-12T05:38:26;97491.09;;;7.78;79.10
34586;BME280;20816;50.950;11.108;2023-04-12T05:40:52;97498.78;;;7.84;78.81
34586;BME280;20816;50.950;11.108;2023-04-12T05:43:19;97487.41;;;7.85;79.18
34586;BME280;20816;50.950;11.108;2023-04-12T05:45:46;97485.53;;;7.90;78.44
34586;BME280;20816;50.950;11.108;2023-04-12T05:48:13;97487.81;;;8.01;79.19
34586;BME280;20816;50.950;11.108;2023-04-12T05:50:40;97480.09;;;7.96;78.37
34586;BME280;20816;50.950;11.108;2023-04-12T05:53:06;97478.31;;;7.98;79.43
34586;BME280;20816;50.950;11.108;2023-04-12T05:55:33;97467.19;;;8.20;79.62
34586;BME280;20816;50.950;11.108;2023-04-12T05:58:03;97460.53;;;8.39;77.98
34586;BME280;20816;50.950;11.108;2023-04-12T06:00:30;97472.31;;;8.52;78.48
34586;BME280;20816;50.950;11.108;2023-04-12T06:02:57;97469.59;;;8.55;77.43
34586;BME280;20816;50.950;11.108;2023-04-12T06:05:24;97467.88;;;8.54;77.38
34586;BME280;20816;50.950;11.108;2023-04-12T06:07:51;97452.94;;;8.58;77.23
34586;BME280;20816;50.950;11.108;2023-04-12T06:10:17;97453.59;;;8.64;77.69
34586;BME280;20816;50.950;11.108;2023-04-12T06:12:44;97445.56;;;8.69;77.38
34586;BME280;20816;50.950;11.108;2023-04-12T06:15:11;97452.00;;;8.85;77.43
34586;BME280;20816;50.950;11.108;2023-04-12T06:17:38;97442.31;;;8.89;78.16
34586;BME280;20816;50.950;11.108;2023-04-12T06:20:05;97442.19;;;8.92;77.82
34586;BME280;20816;50.950;11.108;2023-04-12T06:22:36;97444.00;;;8.90;77.92
34586;BME280;20816;50.950;11.108;2023-04-12T06:25:03;97442.78;;;9.00;77.54
34586;BME280;20816;50.950;11.108;2023-04-12T06:27:30;97438.72;;;9.16;77.07
34586;BME280;20816;50.950;11.108;2023-04-12T06:29:57;97440.34;;;9.20;77.96
34586;BME280;20816;50.950;11.108;2023-04-12T06:32:24;97440.81;;;9.32;77.40
34586;BME280;20816;50.950;11.108;2023-04-12T06:34:51;97431.13;;;9.34;77.63
34586;BME280;20816;50.950;11.108;2023-04-12T06:37:18;97419.06;;;9.28;77.95
34586;BME280;20816;50.950;11.108;2023-04-12T06:39:45;97407.69;;;9.52;77.90
34586;BME280;20816;50.950;11.108;2023-04-12T06:42:12;97409.19;;;9.60;78.32
34586;BME280;20816;50.950;11.108;2023-04-12T06:44:40;97397.03;;;9.57;78.12
34586;BME280;20816;50.950;11.108;2023-04-12T06:47:07;97401.44;;;9.57;78.75
34586;BME280;20816;50.950;11.108;2023-04-12T06:49:34;97386.91;;;9.71;78.94
34586;BME280;20816;50.950;11.108;2023-04-12T06:52:01;97385.19;;;9.70;78.85
34586;BME280;20816;50.950;11.108;2023-04-12T06:54:28;97371.78;;;9.78;79.72
34586;BME280;20816;50.950;11.108;2023-04-12T06:56:55;97359.56;;;9.77;78.37
34586;BME280;20816;50.950;11.108;2023-04-12T06:59:22;97350.97;;;9.73;78.50
34586;BME280;20816;50.950;11.108;2023-04-12T07:01:49;97350.41;;;9.65;79.50
34586;BME280;20816;50.950;11.108;2023-04-12T07:04:16;97333.31;;;9.55;80.50
34586;BME280;20816;50.950;11.108;2023-04-12T07:06:43;97327.06;;;9.58;80.58
34586;BME280;20816;50.950;11.108;2023-04-12T07:09:10;97327.47;;;9.70;81.39
34586;BME280;20816;50.950;11.108;2023-04-12T07:11:36;97320.03;;;9.81;80.67
34586;BME280;20816;50.950;11.108;2023-04-12T07:14:03;97314.09;;;9.76;81.77
34586;BME280;20816;50.950;11.108;2023-04-12T07:16:30;97314.00;;;9.79;80.34
34586;BME280;20816;50.950;11.108;2023-04-12T07:18:58;97318.81;;;9.90;81.03
34586;BME280;20816;50.950;11.108;2023-04-12T07:21:26;97305.69;;;9.90;80.98
34586;BME280;20816;50.950;11.108;2023-04-12T07:23:54;97301.00;;;9.98;81.68
34586;BME280;20816;50.950;11.108;2023-04-12T07:26:21;97305.63;;;10.14;79.23
34586;BME280;20816;50.950;11.108;2023-04-12T07:28:48;97308.63;;;10.04;79.68
34586;BME280;20816;50.950;11.108;2023-04-12T07:31:15;97302.81;;;10.18;80.66
34586;BME280;20816;50.950;11.108;2023-04-12T07:33:42;97297.22;;;10.27;79.77
34586;BME280;20816;50.950;11.108;2023-04-12T07:36:09;97298.22;;;10.45;80.19
34586;BME280;20816;50.950;11.108;2023-04-12T07:38:37;97298.91;;;10.49;78.86
34586;BME280;20816;50.950;11.108;2023-04-12T07:41:03;97294.72;;;10.45;78.75
34586;BME280;20816;50.950;11.108;2023-04-12T07:43:30;97291.47;;;10.60;79.56
34586;BME280;20816;50.950;11.108;2023-04-12T07:45:58;97282.06;;;10.54;79.45
34586;BME280;20816;50.950;11.108;2023-04-12T07:48:25;97277.25;;;10.23;79.68
34586;BME280;20816;50.950;11.108;2023-04-12T07:50:51;97275.94;;;10.33;80.44
34586;BME280;20816;50.950;11.108;2023-04-12T07:53:22;97267.50;;;10.25;80.83
34586;BME280;20816;50.950;11.108;2023-04-12T07:55:49;97221.28;;;10.21;79.59
34586;BME280;20816;50.950;11.108;2023-04-12T07:58:16;97250.41;;;10.15;81.04
34586;BME280;20816;50.950;11.108;2023-04-12T08:00:44;97248.09;;;10.29;80.84
34586;BME280;20816;50.950;11.108;2023-04-12T08:03:12;97240.75;;;10.37;81.45
34586;BME280;20816;50.950;11.108;2023-04-12T08:05:39;97245.22;;;10.35;81.39
34586;BME280;20816;50.950;11.108;2023-04-12T08:08:07;97239.53;;;10.04;80.93
34586;BME280;20816;50.950;11.108;2023-04-12T08:10:36;97244.56;;;10.08;82.02
34586;BME280;20816;50.950;11.108;2023-04-12T08:13:04;97227.09;;;10.07;81.63
34586;BME280;20816;50.950;11.108;2023-04-12T08:15:31;97225.78;;;9.97;81.67
34586;BME280;20816;50.950;11.108;2023-04-12T08:17:59;97232.28;;;9.89;81.05
34586;BME280;20816;50.950;11.108;2023-04-12T08:20:32;97218.38;;;9.87;81.32
34586;BME280;20816;50.950;11.108;2023-04-12T08:22:59;97218.09;;;9.93;80.91
34586;BME280;20816;50.950;11.108;2023-04-12T08:25:25;97206.25;;;10.04;81.05
34586;BME280;20816;50.950;11.108;2023-04-12T08:27:52;97213.44;;;9.99;80.21
34586;BME280;20816;50.950;11.108;2023-04-12T08:30:19;97209.72;;;10.05;79.81
34586;BME280;20816;50.950;11.108;2023-04-12T08:32:52;97204.97;;;10.35;79.97
34586;BME280;20816;50.950;11.108;2023-04-12T08:35:19;97212.66;;;10.39;79.65
34586;BME280;20816;50.950;11.108;2023-04-12T08:37:46;97203.75;;;10.62;80.02
34586;BME280;20816;50.950;11.108;2023-04-12T08:40:13;97206.47;;;10.61;78.49
34586;BME280;20816;50.950;11.108;2023-04-12T08:42:39;97198.59;;;10.41;78.03
34586;BME280;20816;50.950;11.108;2023-04-12T08:45:09;97192.47;;;10.40;78.73
34586;BME280;20816;50.950;11.108;2023-04-12T08:47:38;97192.56;;;10.59;77.77
34586;BME280;20816;50.950;11.108;2023-04-12T08:50:06;97209.28;;;10.56;78.24
34586;BME280;20816;50.950;11.108;2023-04-12T08:52:36;97187.66;;;10.50;77.46
34586;BME280;20816;50.950;11.108;2023-04-12T08:55:04;97182.06;;;10.38;77.27
34586;BME280;20816;50.950;11.108;2023-04-12T08:57:31;97163.59;;;10.20;77.22
34586;BME280;20816;50.950;11.108;2023-04-12T09:00:00;97197.28;;;10.51;80.08
34586;BME280;20816;50.950;11.108;2023-04-12T09:02:28;97165.47;;;10.57;78.65
34586;BME280;20816;50.950;11.108;2023-04-12T09:04:55;97146.34;;;10.34;77.99
34586;BME280;20816;50.950;11.108;2023-04-12T09:07:22;97153.81;;;10.44;77.90
34586;BME280;20816;50.950;11.108;2023-04-12T09:09:54;97148.91;;;10.36;78.26
34586;BME280;20816;50.950;11.108;2023-04-12T09:12:20;97153.16;;;10.18;80.93
34586;BME280;20816;50.950;11.108;2023-04-12T09:15:08;97141.34;;;9.88;82.59
34586;BME280;20816;50.950;11.108;2023-04-12T09:17:35;97140.53;;;9.65;83.81
34586;BME280;20816;50.950;11.108;2023-04-12T09:20:02;97145.69;;;9.46;83.52
34586;BME280;20816;50.950;11.108;2023-04-12T09:22:37;97132.03;;;9.38;84.08
34586;BME280;20816;50.950;11.108;2023-04-12T09:25:05;97141.78;;;9.35;84.57
34586;BME280;20816;50.950;11.108;2023-04-12T09:27:49;97142.78;;;9.32;86.31
34586;BME280;20816;50.950;11.108;2023-04-12T09:30:17;97135.94;;;9.28;86.49
34586;BME280;20816;50.950;11.108;2023-04-12T09:32:45;97132.28;;;9.32;86.27
34586;BME280;20816;50.950;11.108;2023-04-12T09:35:15;97137.16;;;9.41;87.41
34586;BME280;20816;50.950;11.108;2023-04-12T09:37:42;97125.69;;;9.44;87.21
34586;BME280;20816;50.950;11.108;2023-04-12T09:40:09;97125.94;;;9.38;88.13
34586;BME280;20816;50.950;11.108;2023-04-12T09:42:50;97131.19;;;9.38;90.20
34586;BME280;20816;50.950;11.108;2023-04-12T09:47:47;97120.31;;;9.03;92.49
34586;BME280;20816;50.950;11.108;2023-04-12T09:50:25;97108.63;;;8.90;91.89
34586;BME280;20816;50.950;11.108;2023-04-12T09:52:55;97107.22;;;9.03;93.76
34586;BME280;20816;50.950;11.108;2023-04-12T09:55:24;97112.28;;;8.86;93.82
34586;BME280;20816;50.950;11.108;2023-04-12T09:57:53;97099.59;;;8.75;93.20
34586;BME280;20816;50.950;11.108;2023-04-12T10:00:23;97102.38;;;8.70;96.80
34586;BME280;20816;50.950;11.108;2023-04-12T10:02:54;97088.41;;;8.72;96.30
34586;BME280;20816;50.950;11.108;2023-04-12T10:05:23;97090.47;;;8.63;95.88
34586;BME280;20816;50.950;11.108;2023-04-12T10:07:53;97091.91;;;8.70;99.12
34586;BME280;20816;50.950;11.108;2023-04-12T10:10:21;97086.59;;;8.50;97.06
34586;BME280;20816;50.950;11.108;2023-04-12T10:12:49;97071.81;;;8.49;99.84
34586;BME280;20816;50.950;11.108;2023-04-12T10:15:16;97074.19;;;8.55;100.00
34586;BME280;20816;50.950;11.108;2023-04-12T10:17:50;97052.44;;;8.53;99.31
34586;BME280;20816;50.950;11.108;2023-04-12T10:20:19;97056.81;;;8.53;97.56
34586;BME280;20816;50.950;11.108;2023-04-12T10:22:50;97057.56;;;8.56;98.43
34586;BME280;20816;50.950;11.108;2023-04-12T10:25:19;97049.16;;;8.48;97.73
34586;BME280;20816;50.950;11.108;2023-04-12T10:27:47;97050.63;;;8.55;97.03
34586;BME280;20816;50.950;11.108;2023-04-12T10:30:24;97050.38;;;8.61;95.58
34586;BME280;20816;50.950;11.108;2023-04-12T10:35:51;97033.34;;;8.73;93.96
34586;BME280;20816;50.950;11.108;2023-04-12T10:38:18;97028.81;;;8.77;92.99
34586;BME280;20816;50.950;11.108;2023-04-12T10:41:17;97035.22;;;8.91;94.47
34586;BME280;20816;50.950;11.108;2023-04-12T10:43:44;97036.84;;;8.94;93.44
34586;BME280;20816;50.950;11.108;2023-04-12T10:49:07;97026.22;;;9.19;91.31
34586;BME280;20816;50.950;11.108;2023-04-12T10:51:34;97039.38;;;9.17;92.21
34586;BME280;20816;50.950;11.108;2023-04-12T10:56:39;97021.03;;;9.17;91.31
34586;BME280;20816;50.950;11.108;2023-04-12T10:59:07;97016.34;;;9.25;91.89
34586;BME280;20816;50.950;11.108;2023-04-12T11:01:34;97012.25;;;9.18;91.98
34586;BME280;20816;50.950;11.108;2023-04-12T11:04:18;97005.31;;;9.17;91.26
34586;BME280;20816;50.950;11.108;2023-04-12T11:14:58;96982.56;;;9.59;91.15
34586;BME280;20816;50.950;11.108;2023-04-12T11:17:28;96970.31;;;9.59;90.33
34586;BME280;20816;50.950;11.108;2023-04-12T11:19:58;96976.63;;;9.55;91.04
34586;BME280;20816;50.950;11.108;2023-04-12T11:22:27;96959.13;;;9.74;90.40
34586;BME280;20816;50.950;11.108;2023-04-12T11:24:59;96965.28;;;9.94;92.35
34586;BME280;20816;50.950;11.108;2023-04-12T11:27:28;96953.84;;;9.95;90.06
34586;BME280;20816;50.950;11.108;2023-04-12T11:29:56;96958.94;;;9.98;91.01
34586;BME280;20816;50.950;11.108;2023-04-12T11:32:25;96948.44;;;9.98;90.90
34586;BME280;20816;50.950;11.108;2023-04-12T11:34:55;96949.28;;;9.98;90.52
34586;BME280;20816;50.950;11.108;2023-04-12T11:37:22;96948.75;;;10.10;90.69
34586;BME280;20816;50.950;11.108;2023-04-12T11:39:55;96947.66;;;10.15;91.56
34586;BME280;20816;50.950;11.108;2023-04-12T11:42:23;96948.59;;;10.14;89.63
34586;BME280;20816;50.950;11.108;2023-04-12T11:44:51;96951.59;;;10.25;90.31
34586;BME280;20816;50.950;11.108;2023-04-12T11:47:26;96943.66;;;10.26;89.03
34586;BME280;20816;50.950;11.108;2023-04-12T11:49:57;96939.72;;;10.16;88.36
34586;BME280;20816;50.950;11.108;2023-04-12T11:52:29;96938.78;;;10.17;89.82
34586;BME280;20816;50.950;11.108;2023-04-12T11:55:00;96932.56;;;10.38;88.53
34586;BME280;20816;50.950;11.108;2023-04-12T11:57:27;96933.22;;;10.44;89.32
34586;BME280;20816;50.950;11.108;2023-04-12T11:59:56;96936.53;;;10.47;88.49
34586;BME280;20816;50.950;11.108;2023-04-12T12:02:25;96918.41;;;10.60;89.64
34586;BME280;20816;50.950;11.108;2023-04-12T12:04:57;96923.81;;;10.74;88.53
34586;BME280;20816;50.950;11.108;2023-04-12T12:07:24;96918.72;;;10.71;87.33
34586;BME280;20816;50.950;11.108;2023-04-12T12:09:52;96915.44;;;10.66;86.95
34586;BME280;20816;50.950;11.108;2023-04-12T12:12:22;96905.88;;;10.65;88.46
34586;BME280;20816;50.950;11.108;2023-04-12T12:14:49;96916.09;;;10.71;89.39
34586;BME280;20816;50.950;11.108;2023-04-12T12:17:16;96903.25;;;10.65;89.57
34586;BME280;20816;50.950;11.108;2023-04-12T12:19:44;96907.81;;;10.61;89.01
34586;BME280;20816;50.950;11.108;2023-04-12T12:22:16;96900.63;;;10.65;88.48
34586;BME280;20816;50.950;11.108;2023-04-12T12:24:57;96896.56;;;10.77;88.96
34586;BME280;20816;50.950;11.108;2023-04-12T12:27:38;96888.75;;;10.75;88.41
34586;BME280;20816;50.950;11.108;2023-04-12T12:30:07;96886.13;;;10.75;89.39
34586;BME280;20816;50.950;11.108;2023-04-12T12:32:37;96885.31;;;10.73;89.53
34586;BME280;20816;50.950;11.108;2023-04-12T12:35:09;96887.34;;;10.68;92.53
34586;BME280;20816;50.950;11.108;2023-04-12T12:37:37;96880.06;;;10.56;93.92
34586;BME280;20816;50.950;11.108;2023-04-12T12:40:07;96882.97;;;10.50;94.10
34586;BME280;20816;50.950;11.108;2023-04-12T12:42:57;96881.66;;;10.41;96.38
34586;BME280;20816;50.950;11.108;2023-04-12T12:45:26;96876.88;;;10.49;97.30
34586;BME280;20816;50.950;11.108;2023-04-12T12:48:02;96878.06;;;10.44;96.77
34586;BME280;20816;50.950;11.108;2023-04-12T12:50:32;96879.97;;;10.40;98.85
34586;BME280;20816;50.950;11.108;2023-04-12T12:53:00;96878.28;;;10.56;100.00
34586;BME280;20816;50.950;11.108;2023-04-12T12:55:28;96874.22;;;10.68;99.35
34586;BME280;20816;50.950;11.108;2023-04-12T12:57:56;96868.63;;;10.57;96.37
34586;BME280;20816;50.950;11.108;2023-04-12T13:00:27;96873.09;;;10.37;97.51
34586;BME280;20816;50.950;11.108;2023-04-12T13:02:55;96871.22;;;10.39;98.21
34586;BME280;20816;50.950;11.108;2023-04-12T13:05:22;96867.09;;;10.53;97.63
34586;BME280;20816;50.950;11.108;2023-04-12T13:07:49;96856.28;;;10.59;97.71
34586;BME280;20816;50.950;11.108;2023-04-12T13:10:16;96837.25;;;10.88;98.40
34586;BME280;20816;50.950;11.108;2023-04-12T13:12:43;96832.06;;;11.04;96.98
34586;BME280;20816;50.950;11.108;2023-04-12T13:15:10;96825.78;;;11.24;96.96
34586;BME280;20816;50.950;11.108;2023-04-12T13:17:52;96816.44;;;11.34;94.96
34586;BME280;20816;50.950;11.108;2023-04-12T13:20:19;96808.59;;;11.66;95.02
34586;BME280;20816;50.950;11.108;2023-04-12T13:22:46;96809.81;;;12.07;94.22
34586;BME280;20816;50.950;11.108;2023-04-12T13:25:13;96792.94;;;12.26;91.82
34586;BME280;20816;50.950;11.108;2023-04-12T13:27:40;96805.44;;;12.38;90.56
34586;BME280;20816;50.950;11.108;2023-04-12T13:30:07;96794.31;;;12.17;90.66